Map Display - EGCC to LDDU
(last flight recorded 06-03-2021, 19:52 - Dale Moore)

Aircraft Weights    Units : Maximums
Passengers :   0  
Cargo : kg 42,000 kg
Suggested Fuel Load : kg 48,670 kg
 
     
 
Dry Operating : 84,000 kg    
Total Payload : 0 kg 42,000 kg
 
Take Off : 103,120 kg 165,000 kg
 
Expected Landing : 90,805 kg 136,000 kg

Dale Moore,  A30B ,  G-BMZL,  .

Route Distance Previous
Flights
Average
Duration
Average
Fuel Flow
Average
Fuel Use
EGCC - Manchester
LDDU - Cilipi, Dubrovnik, Croatia
1,045 nm 2 02:30 4,861 kg/h 12,315 kg

Current weather :-
2021/03/06 18:09
TAF EGCC 061656Z 0618/0724 29005KT 9999 SCT040 PROB30 0700/0709 9000
2021/03/06 18:27
TAF TAF LDDU 061725Z 0618/0718 02012KT CAVOK TX13/0712Z TN06/0705Z
TEMPO 0618/0700 02018G28KT
BECMG 0708/0710 27008KT
BECMG 0716/0718 02007KT

Back to Virtual Airline